createdAt,value
2022-11-13T00:00:54.820Z,30.08
2022-11-13T00:03:24.073Z,30.95
2022-11-13T00:06:00.691Z,31.48
2022-11-13T00:08:28.793Z,29.00
2022-11-13T00:11:01.519Z,29.70
2022-11-13T00:13:30.644Z,30.80
2022-11-13T00:15:59.836Z,31.02
2022-11-13T00:18:30.628Z,30.80
2022-11-13T00:20:58.921Z,30.02
2022-11-13T00:23:26.683Z,30.65
2022-11-13T00:25:54.522Z,32.13
2022-11-13T00:28:22.322Z,32.47
2022-11-13T00:30:50.092Z,31.77
2022-11-13T00:33:37.937Z,31.40
2022-11-13T00:36:09.241Z,34.92
2022-11-13T00:38:37.052Z,33.42
2022-11-13T00:41:04.825Z,36.13
2022-11-13T00:43:32.657Z,33.25
2022-11-13T00:46:00.428Z,34.60
2022-11-13T00:48:28.551Z,36.22
2022-11-13T00:50:56.937Z,36.25
2022-11-13T00:53:26.275Z,33.35
2022-11-13T00:55:54.046Z,35.17
2022-11-13T00:58:22.011Z,33.83
2022-11-13T01:00:50.474Z,32.47
2022-11-13T01:03:18.996Z,31.80
2022-11-13T01:05:48.010Z,30.63
2022-11-13T01:08:17.155Z,29.40
2022-11-13T01:10:53.488Z,28.70
2022-11-13T01:13:21.825Z,27.63
2022-11-13T01:15:49.685Z,25.77
2022-11-13T01:18:17.517Z,24.20
2022-11-13T01:20:46.005Z,22.20
2022-11-13T01:23:13.753Z,23.50
2022-11-13T01:25:41.613Z,22.60
2022-11-13T01:28:10.785Z,22.45
2022-11-13T01:30:40.131Z,24.55
2022-11-13T01:33:07.898Z,22.20
2022-11-13T01:35:35.738Z,23.58
2022-11-13T01:38:03.516Z,22.10
2022-11-13T01:40:31.281Z,21.95
2022-11-13T01:42:59.100Z,21.60
2022-11-13T01:46:06.356Z,20.70
2022-11-13T01:48:39.704Z,20.00
2022-11-13T01:51:12.209Z,18.30
2022-11-13T01:53:41.976Z,18.53
2022-11-13T01:56:10.141Z,19.02
2022-11-13T01:58:40.414Z,18.02
2022-11-13T02:01:09.950Z,18.05
2022-11-13T02:03:37.934Z,18.20
2022-11-13T02:06:05.930Z,20.38
2022-11-13T02:08:34.556Z,18.48
2022-11-13T02:11:02.557Z,17.60
2022-11-13T02:13:30.377Z,18.95
2022-11-13T02:15:59.052Z,17.35
2022-11-13T02:18:31.694Z,18.77
2022-11-13T02:21:07.036Z,17.23
2022-11-13T02:23:44.778Z,18.13
2022-11-13T02:26:14.637Z,17.23
2022-11-13T02:28:42.436Z,18.20
2022-11-13T02:31:11.581Z,17.97
2022-11-13T02:33:39.410Z,18.75
2022-11-13T02:36:10.331Z,17.90
2022-11-13T02:38:40.148Z,19.38
2022-11-13T02:41:07.949Z,18.17
2022-11-13T02:43:37.095Z,17.92
2022-11-13T02:46:04.946Z,19.45
2022-11-13T02:48:32.701Z,18.00
2022-11-13T02:51:00.462Z,18.83
2022-11-13T02:53:28.401Z,17.80
2022-11-13T02:55:56.157Z,16.58
2022-11-13T02:58:23.977Z,17.40
2022-11-13T03:00:53.094Z,17.90
2022-11-13T03:03:41.055Z,15.82
2022-11-13T03:06:08.668Z,16.38
2022-11-13T03:08:37.057Z,16.25
2022-11-13T03:11:09.811Z,15.95
2022-11-13T03:13:38.153Z,16.58
2022-11-13T03:16:15.161Z,16.98
2022-11-13T03:18:43.116Z,14.93
2022-11-13T03:21:12.796Z,15.52
2022-11-13T03:23:44.855Z,14.43
2022-11-13T03:26:16.637Z,13.25
2022-11-13T03:28:44.594Z,13.98
2022-11-13T03:31:13.755Z,15.07
2022-11-13T03:33:41.521Z,14.90
2022-11-13T03:36:09.686Z,15.43
2022-11-13T03:38:37.480Z,14.40
2022-11-13T03:41:05.724Z,13.88
2022-11-13T03:43:33.513Z,13.60
2022-11-13T03:46:01.295Z,12.27
2022-11-13T03:48:30.795Z,12.73
2022-11-13T03:50:58.757Z,12.27
2022-11-13T03:53:26.749Z,12.02
2022-11-13T03:55:55.060Z,12.52
2022-11-13T03:58:22.872Z,12.68
2022-11-13T04:00:51.121Z,12.10
2022-11-13T04:03:18.866Z,12.52
2022-11-13T04:05:49.201Z,11.60
2022-11-13T04:08:17.231Z,12.27
2022-11-13T04:10:45.093Z,11.18
2022-11-13T04:13:13.984Z,11.43
2022-11-13T04:15:41.791Z,10.55
2022-11-13T04:18:09.549Z,11.07
2022-11-13T04:20:37.451Z,11.10
2022-11-13T04:23:11.347Z,10.57
2022-11-13T04:25:39.158Z,10.82
2022-11-13T04:28:06.909Z,10.77
2022-11-13T04:30:34.666Z,10.60
2022-11-13T04:33:02.457Z,10.00
2022-11-13T04:35:30.249Z,9.93
2022-11-13T04:37:58.022Z,10.55
2022-11-13T04:40:27.177Z,11.23
2022-11-13T04:42:54.107Z,11.02
2022-11-13T04:45:23.951Z,10.80
2022-11-13T04:47:52.510Z,10.40
2022-11-13T04:50:20.444Z,10.48
2022-11-13T04:52:48.466Z,10.80
2022-11-13T04:55:16.397Z,10.57
2022-11-13T04:57:45.534Z,10.48
2022-11-13T05:00:14.401Z,10.55
2022-11-13T05:02:42.237Z,10.10
2022-11-13T05:05:10.261Z,11.05
2022-11-13T05:07:38.419Z,10.17
2022-11-13T05:10:07.043Z,10.15
2022-11-13T05:12:34.834Z,9.98
2022-11-13T05:15:04.592Z,10.50
2022-11-13T05:17:32.810Z,9.75
2022-11-13T05:20:00.577Z,10.05
2022-11-13T05:22:28.591Z,9.55
2022-11-13T05:24:56.376Z,9.50
2022-11-13T05:27:24.157Z,9.45
2022-11-13T05:29:51.935Z,9.75
2022-11-13T05:32:21.088Z,9.18
2022-11-13T05:34:48.814Z,8.95
2022-11-13T05:37:16.765Z,9.45
2022-11-13T05:39:44.560Z,9.40
2022-11-13T05:42:12.298Z,9.55
2022-11-13T05:44:40.161Z,9.32
2022-11-13T05:47:07.954Z,9.20
2022-11-13T05:49:37.075Z,9.20
2022-11-13T05:52:04.860Z,9.57
2022-11-13T05:54:32.657Z,9.60
2022-11-13T05:57:00.436Z,9.52
2022-11-13T05:59:28.192Z,10.07
2022-11-13T06:01:56.046Z,9.30
2022-11-13T06:04:23.817Z,9.50
2022-11-13T06:06:53.326Z,9.75
2022-11-13T06:09:21.384Z,10.02
2022-11-13T06:11:49.173Z,9.60
2022-11-13T06:14:17.016Z,10.05
2022-11-13T06:16:44.813Z,10.02
2022-11-13T06:19:12.940Z,8.48
2022-11-13T06:21:41.704Z,7.53
2022-11-13T06:24:14.040Z,7.97
2022-11-13T06:26:41.907Z,8.27
2022-11-13T06:29:12.675Z,8.25
2022-11-13T06:31:40.842Z,9.17
2022-11-13T06:34:08.805Z,9.07
2022-11-13T06:36:38.405Z,9.15
2022-11-13T06:39:11.408Z,8.90
2022-11-13T06:41:40.465Z,9.10
2022-11-13T06:44:08.390Z,9.18
2022-11-13T06:46:36.305Z,9.27
2022-11-13T06:49:04.322Z,9.23
2022-11-13T06:51:32.873Z,9.32
2022-11-13T06:54:00.735Z,10.25
2022-11-13T06:56:30.126Z,10.32
2022-11-13T06:58:58.355Z,10.57
2022-11-13T07:01:27.702Z,10.85
2022-11-13T07:03:55.770Z,10.77
2022-11-13T07:06:25.290Z,11.75
2022-11-13T07:08:53.476Z,11.87
2022-11-13T07:11:23.474Z,11.35
2022-11-13T07:13:52.863Z,12.07
2022-11-13T07:16:21.030Z,11.60
2022-11-13T07:18:52.542Z,11.20
2022-11-13T07:21:20.646Z,11.70
2022-11-13T07:23:49.628Z,11.90
2022-11-13T07:26:17.432Z,12.35
2022-11-13T07:28:45.829Z,12.25
2022-11-13T07:31:17.077Z,12.45
2022-11-13T07:33:45.197Z,12.48
2022-11-13T07:36:12.988Z,13.13
2022-11-13T07:38:40.758Z,13.13
2022-11-13T07:41:08.896Z,13.75
2022-11-13T07:43:36.739Z,14.45
2022-11-13T07:46:04.515Z,15.18
2022-11-13T07:48:33.665Z,14.82
2022-11-13T07:51:02.457Z,14.00
2022-11-13T07:53:30.591Z,15.15
2022-11-13T07:56:01.910Z,15.63
2022-11-13T07:58:30.341Z,15.23
2022-11-13T08:01:04.075Z,14.77
2022-11-13T08:03:33.467Z,14.73
2022-11-13T08:06:03.322Z,14.50
2022-11-13T08:08:31.446Z,14.40
2022-11-13T08:10:59.590Z,14.77
2022-11-13T08:13:27.632Z,14.25
2022-11-13T08:15:55.512Z,15.60
2022-11-13T08:18:23.278Z,15.13
2022-11-13T08:20:52.717Z,15.13
2022-11-13T08:23:20.560Z,15.80
2022-11-13T08:25:48.312Z,16.00
2022-11-13T08:28:16.454Z,15.70
2022-11-13T08:30:45.106Z,16.20
2022-11-13T08:33:12.914Z,16.27
2022-11-13T08:35:40.957Z,16.92
2022-11-13T08:38:10.537Z,16.92
2022-11-13T08:40:38.393Z,17.60
2022-11-13T08:43:06.414Z,18.38
2022-11-13T08:45:34.173Z,18.98
2022-11-13T08:48:02.756Z,19.37
2022-11-13T08:50:31.663Z,21.70
2022-11-13T08:53:01.466Z,21.33
2022-11-13T08:55:30.620Z,21.55
2022-11-13T08:58:00.072Z,20.65
2022-11-13T09:00:28.310Z,21.25
2022-11-13T09:02:56.514Z,20.87
2022-11-13T09:05:24.591Z,21.52
2022-11-13T09:07:52.895Z,22.63
2022-11-13T09:10:20.794Z,23.17
2022-11-13T09:12:49.961Z,24.90
2022-11-13T09:15:23.210Z,24.43
2022-11-13T09:17:52.149Z,23.67
2022-11-13T09:20:22.704Z,25.52
2022-11-13T09:22:57.840Z,25.20
2022-11-13T09:25:25.778Z,24.88
2022-11-13T09:27:56.468Z,24.27
2022-11-13T09:30:24.871Z,24.73
2022-11-13T09:32:54.941Z,24.70
2022-11-13T09:35:33.939Z,25.27
2022-11-13T09:38:06.542Z,23.70
2022-11-13T09:40:42.453Z,23.73
2022-11-13T09:43:29.347Z,24.92
2022-11-13T09:46:01.758Z,23.70
2022-11-13T09:48:34.758Z,23.60
2022-11-13T09:51:07.246Z,22.10
2022-11-13T09:53:37.910Z,22.88
2022-11-13T09:56:20.045Z,22.30
2022-11-13T09:58:54.445Z,22.52
2022-11-13T10:01:27.511Z,22.37
2022-11-13T10:04:04.135Z,23.00
2022-11-13T10:06:42.329Z,22.70
2022-11-13T10:09:20.374Z,23.90
2022-11-13T10:11:54.398Z,25.50
2022-11-13T10:14:27.930Z,24.40
2022-11-13T10:16:59.012Z,24.00
2022-11-13T10:19:32.523Z,24.27
2022-11-13T10:22:31.789Z,23.73
2022-11-13T10:24:59.406Z,24.08
2022-11-13T10:27:27.601Z,23.17
2022-11-13T10:29:57.942Z,22.35
2022-11-13T10:32:27.871Z,22.90
2022-11-13T10:35:00.676Z,21.95
2022-11-13T10:37:41.783Z,22.73
2022-11-13T10:40:09.935Z,22.20
2022-11-13T10:42:40.493Z,22.77
2022-11-13T10:45:18.613Z,21.33
2022-11-13T10:48:03.589Z,18.77
2022-11-13T10:50:33.961Z,17.30
2022-11-13T10:53:01.754Z,17.50
2022-11-13T10:55:39.461Z,18.75
2022-11-13T10:58:14.601Z,18.15
2022-11-13T11:00:47.409Z,16.97
2022-11-13T11:03:17.360Z,16.70
2022-11-13T11:05:58.815Z,17.92
2022-11-13T11:08:32.088Z,17.08
2022-11-13T11:11:19.519Z,18.15
2022-11-13T11:13:48.954Z,17.48
2022-11-13T11:16:22.455Z,17.27
2022-11-13T11:18:56.789Z,17.13
2022-11-13T11:21:28.335Z,16.50
2022-11-13T11:24:01.859Z,16.27
2022-11-13T11:26:33.572Z,16.42
2022-11-13T11:29:08.131Z,16.50
2022-11-13T11:31:47.233Z,17.10
2022-11-13T11:34:21.393Z,16.38
2022-11-13T11:36:59.037Z,16.40
2022-11-13T11:39:30.586Z,17.33
2022-11-13T11:42:07.097Z,17.40
2022-11-13T11:44:43.014Z,17.27
2022-11-13T11:47:16.846Z,16.70
2022-11-13T11:49:45.325Z,16.63
2022-11-13T11:52:33.042Z,16.15
2022-11-13T11:55:13.310Z,16.58
2022-11-13T11:57:58.307Z,16.48
2022-11-13T12:00:28.433Z,16.23
2022-11-13T12:03:44.353Z,16.02
2022-11-13T12:06:24.552Z,17.20
2022-11-13T12:09:01.148Z,16.77
2022-11-13T12:11:32.745Z,17.67
2022-11-13T12:14:13.166Z,16.88
2022-11-13T12:16:50.946Z,17.02
2022-11-13T12:19:32.014Z,16.02
2022-11-13T12:22:09.586Z,16.83
2022-11-13T12:25:00.687Z,17.00
2022-11-13T12:27:35.191Z,15.73
2022-11-13T12:30:11.936Z,16.52
2022-11-13T12:33:04.353Z,15.93
2022-11-13T12:35:32.743Z,19.25
2022-11-13T12:38:12.291Z,17.00
2022-11-13T12:40:52.176Z,15.70
2022-11-13T12:43:41.722Z,15.90
2022-11-13T12:46:10.914Z,15.40
2022-11-13T12:48:41.902Z,16.05
2022-11-13T12:51:11.481Z,14.70
2022-11-13T12:53:49.104Z,14.35
2022-11-13T12:56:30.766Z,14.48
2022-11-13T12:59:29.261Z,14.00
2022-11-13T13:01:52.914Z,14.15
2022-11-13T13:04:43.668Z,14.60
2022-11-13T13:07:24.263Z,15.13
2022-11-13T13:10:07.017Z,15.10
2022-11-13T13:12:45.478Z,15.15
2022-11-13T13:15:34.106Z,15.50
2022-11-13T13:18:06.953Z,15.13
2022-11-13T13:20:37.665Z,15.70
2022-11-13T13:23:08.601Z,14.93
2022-11-13T13:25:38.831Z,14.20
2022-11-13T13:28:21.161Z,14.27
2022-11-13T13:30:58.010Z,14.52
2022-11-13T13:33:32.701Z,15.05
2022-11-13T13:36:13.865Z,14.02
2022-11-13T13:38:51.936Z,14.50
2022-11-13T13:41:34.450Z,15.67
2022-11-13T13:44:25.106Z,15.75
2022-11-13T13:46:53.088Z,14.02
2022-11-13T13:49:24.145Z,13.52
2022-11-13T13:51:55.046Z,14.07
2022-11-13T13:54:29.076Z,13.32
2022-11-13T13:56:59.510Z,13.65
2022-11-13T13:59:33.012Z,14.68
2022-11-13T14:02:02.593Z,14.43
2022-11-13T14:04:34.267Z,13.57
2022-11-13T14:07:03.572Z,13.02
2022-11-13T14:09:32.108Z,13.38
2022-11-13T14:12:08.993Z,12.68
2022-11-13T14:14:40.428Z,12.27
2022-11-13T14:17:10.920Z,12.35
2022-11-13T14:19:38.874Z,12.50
2022-11-13T14:22:11.510Z,12.32
2022-11-13T14:24:47.068Z,12.05
2022-11-13T14:27:20.405Z,12.77
2022-11-13T14:29:49.911Z,12.52
2022-11-13T14:32:22.234Z,12.15
2022-11-13T14:34:51.620Z,12.60
2022-11-13T14:37:24.945Z,12.90
2022-11-13T14:39:53.753Z,12.43
2022-11-13T14:42:27.309Z,12.40
2022-11-13T14:44:55.436Z,12.02
2022-11-13T14:47:25.792Z,14.40
2022-11-13T14:49:53.926Z,13.32
2022-11-13T14:52:23.448Z,13.15
2022-11-13T14:55:19.044Z,12.43
2022-11-13T14:57:51.892Z,13.07
2022-11-13T15:00:27.282Z,13.00
2022-11-13T15:02:55.507Z,13.57
2022-11-13T15:05:23.354Z,14.00
2022-11-13T15:07:51.656Z,13.20
2022-11-13T15:10:21.815Z,14.13
2022-11-13T15:12:50.962Z,13.82
2022-11-13T15:15:21.959Z,13.63
2022-11-13T15:17:51.913Z,14.57
2022-11-13T15:20:23.936Z,14.07
2022-11-13T15:22:52.935Z,12.77
2022-11-13T15:25:22.710Z,12.52
2022-11-13T15:27:51.969Z,14.60
2022-11-13T15:30:20.309Z,13.48
2022-11-13T15:32:49.146Z,15.23
2022-11-13T15:35:18.918Z,15.63
2022-11-13T15:37:46.765Z,14.30
2022-11-13T15:40:15.453Z,13.90
2022-11-13T15:42:44.219Z,14.65
2022-11-13T15:45:16.988Z,16.67
2022-11-13T15:47:44.982Z,15.35
2022-11-13T15:50:14.888Z,16.80
2022-11-13T15:52:46.881Z,16.35
2022-11-13T15:55:25.790Z,17.85
2022-11-13T15:57:54.452Z,14.95
2022-11-13T16:00:26.107Z,15.80
2022-11-13T16:02:55.688Z,16.58
2022-11-13T16:05:25.242Z,15.50
2022-11-13T16:07:53.381Z,14.73
2022-11-13T16:10:21.708Z,16.48
2022-11-13T16:12:49.484Z,15.55
2022-11-13T16:15:18.282Z,15.95
2022-11-13T16:17:49.487Z,17.00
2022-11-13T16:20:18.774Z,15.27
2022-11-13T16:22:46.741Z,15.20
2022-11-13T16:25:16.629Z,16.13
2022-11-13T16:27:45.077Z,17.45
2022-11-13T16:30:17.274Z,20.80
2022-11-13T16:32:45.167Z,19.05
2022-11-13T16:35:15.587Z,24.10
2022-11-13T16:37:43.713Z,22.38
2022-11-13T16:40:19.169Z,19.27
2022-11-13T16:42:47.548Z,19.50
2022-11-13T16:45:15.618Z,19.40
2022-11-13T16:47:44.305Z,19.27
2022-11-13T16:50:19.892Z,18.50
2022-11-13T16:52:47.733Z,17.75
2022-11-13T16:55:15.686Z,17.00
2022-11-13T16:57:43.583Z,16.58
2022-11-13T17:00:16.031Z,17.42
2022-11-13T17:02:44.683Z,16.55
2022-11-13T17:05:14.326Z,16.65
2022-11-13T17:07:43.578Z,17.33
2022-11-13T17:10:30.820Z,16.08
2022-11-13T17:12:59.456Z,16.50
2022-11-13T17:15:27.266Z,18.27
2022-11-13T17:17:57.892Z,15.85
2022-11-13T17:20:26.017Z,16.52
2022-11-13T17:22:55.265Z,17.77
2022-11-13T17:25:26.347Z,18.90
2022-11-13T17:27:54.260Z,18.50
2022-11-13T17:30:22.430Z,17.70
2022-11-13T17:32:50.274Z,18.00
2022-11-13T17:35:18.176Z,18.23
2022-11-13T17:37:46.000Z,19.50
2022-11-13T17:40:15.246Z,18.33
2022-11-13T17:42:43.066Z,19.73
2022-11-13T17:45:12.033Z,19.52
2022-11-13T17:47:39.829Z,19.70
2022-11-13T17:50:08.604Z,21.00
2022-11-13T17:52:36.480Z,22.08
2022-11-13T17:55:06.171Z,20.80
2022-11-13T17:57:35.641Z,20.87
2022-11-13T18:00:04.670Z,22.58
2022-11-13T18:02:33.979Z,22.27
2022-11-13T18:05:04.038Z,21.00
2022-11-13T18:07:32.438Z,22.00
2022-11-13T18:10:00.232Z,23.63
2022-11-13T18:12:28.609Z,21.80
2022-11-13T18:14:57.865Z,23.17
2022-11-13T18:17:25.978Z,26.10
2022-11-13T18:20:00.400Z,24.90
2022-11-13T18:22:29.838Z,25.80
2022-11-13T18:24:57.721Z,25.20
2022-11-13T18:27:25.569Z,26.40
2022-11-13T18:29:53.444Z,27.67
2022-11-13T18:32:22.699Z,27.23
2022-11-13T18:34:50.522Z,24.88
2022-11-13T18:37:18.407Z,25.97
2022-11-13T18:39:46.351Z,25.35
2022-11-13T18:42:14.133Z,23.70
2022-11-13T18:44:41.904Z,22.98
2022-11-13T18:47:09.771Z,21.88
2022-11-13T18:49:39.046Z,21.75
2022-11-13T18:52:07.089Z,21.13
2022-11-13T18:54:34.986Z,20.20
2022-11-13T18:57:02.840Z,19.23
2022-11-13T18:59:30.824Z,18.92
2022-11-13T19:01:58.694Z,18.27
2022-11-13T19:04:26.557Z,18.25
2022-11-13T19:06:55.983Z,17.40
2022-11-13T19:09:23.850Z,18.07
2022-11-13T19:11:51.716Z,18.13
2022-11-13T19:14:20.264Z,17.30
2022-11-13T19:16:48.141Z,18.70
2022-11-13T19:19:18.185Z,19.02
2022-11-13T19:21:46.685Z,18.25
2022-11-13T19:24:16.270Z,17.77
2022-11-13T19:26:45.822Z,18.00
2022-11-13T19:29:13.848Z,17.95
2022-11-13T19:31:42.069Z,17.50
2022-11-13T19:34:10.905Z,17.60
2022-11-13T19:36:40.965Z,16.65
2022-11-13T19:39:09.642Z,18.45
2022-11-13T19:41:38.862Z,17.73
2022-11-13T19:44:06.917Z,16.90
2022-11-13T19:46:34.802Z,19.13
2022-11-13T19:49:02.574Z,19.42
2022-11-13T19:51:30.349Z,18.30
2022-11-13T19:54:00.318Z,17.83
2022-11-13T19:56:29.116Z,18.05
2022-11-13T19:58:58.332Z,19.33
2022-11-13T20:01:28.257Z,18.90
2022-11-13T20:03:57.392Z,18.95
2022-11-13T20:06:26.314Z,18.35
2022-11-13T20:08:54.211Z,18.45
2022-11-13T20:11:22.107Z,18.85
2022-11-13T20:13:49.992Z,18.67
2022-11-13T20:16:20.863Z,18.52
2022-11-13T20:18:49.008Z,19.02
2022-11-13T20:21:17.230Z,18.30
2022-11-13T20:23:45.076Z,19.33
2022-11-13T20:26:16.513Z,19.27
2022-11-13T20:28:44.566Z,18.98
2022-11-13T20:31:16.255Z,19.30
2022-11-13T20:33:45.538Z,18.90
2022-11-13T20:36:14.169Z,19.63
2022-11-13T20:38:44.030Z,19.05
2022-11-13T20:41:12.729Z,19.70
2022-11-13T20:43:40.734Z,20.60
2022-11-13T20:46:11.049Z,20.92
2022-11-13T20:48:39.057Z,20.60
2022-11-13T20:51:09.853Z,20.60
2022-11-13T20:53:37.697Z,21.60
2022-11-13T20:56:07.489Z,22.33
2022-11-13T20:58:35.581Z,23.45
2022-11-13T21:01:04.685Z,24.33
2022-11-13T21:03:35.912Z,24.13
2022-11-13T21:06:08.906Z,22.85
2022-11-13T21:08:36.871Z,25.73
2022-11-13T21:11:06.842Z,27.38
2022-11-13T21:13:35.637Z,26.60
2022-11-13T21:16:06.182Z,26.13
2022-11-13T21:18:34.222Z,27.65
2022-11-13T21:21:08.304Z,26.13
2022-11-13T21:23:36.259Z,26.15
2022-11-13T21:26:05.679Z,27.50
2022-11-13T21:28:35.655Z,28.45
2022-11-13T21:31:04.343Z,26.55
2022-11-13T21:33:36.409Z,27.38
2022-11-13T21:36:11.766Z,27.83
2022-11-13T21:38:40.074Z,27.65
2022-11-13T21:41:24.655Z,31.15
2022-11-13T21:43:56.341Z,30.00
2022-11-13T21:46:26.184Z,29.75
2022-11-13T21:48:57.108Z,27.58
2022-11-13T21:51:26.738Z,28.45
2022-11-13T21:53:54.578Z,27.77
2022-11-13T21:56:22.776Z,26.77
2022-11-13T21:58:50.810Z,26.67
2022-11-13T22:01:18.843Z,26.52
2022-11-13T22:03:46.772Z,27.15
2022-11-13T22:06:20.028Z,27.43
2022-11-13T22:08:56.544Z,26.95
2022-11-13T22:11:24.718Z,26.08
2022-11-13T22:13:52.628Z,26.92
2022-11-13T22:16:20.826Z,27.10
2022-11-13T22:18:48.760Z,26.42
2022-11-13T22:21:16.831Z,26.10
2022-11-13T22:23:44.667Z,27.55
2022-11-13T22:26:15.931Z,25.30
2022-11-13T22:28:45.405Z,24.42
2022-11-13T22:31:15.773Z,24.45
2022-11-13T22:33:48.299Z,23.92
2022-11-13T22:36:20.561Z,24.10
2022-11-13T22:38:48.798Z,22.83
2022-11-13T22:41:22.826Z,22.58
2022-11-13T22:43:53.530Z,23.40
2022-11-13T22:46:23.396Z,24.75
2022-11-13T22:48:52.787Z,22.20
2022-11-13T22:51:22.429Z,23.27
2022-11-13T22:53:51.976Z,22.60
2022-11-13T22:56:22.487Z,22.13
2022-11-13T22:58:50.813Z,22.03
2022-11-13T23:01:20.995Z,22.10
2022-11-13T23:03:50.386Z,23.52
2022-11-13T23:06:20.474Z,22.42
2022-11-13T23:08:49.369Z,22.38
2022-11-13T23:11:19.882Z,22.60
2022-11-13T23:13:50.385Z,22.80
2022-11-13T23:16:19.224Z,22.50
2022-11-13T23:18:47.375Z,22.80
2022-11-13T23:21:16.388Z,22.50
2022-11-13T23:23:44.722Z,22.63
2022-11-13T23:26:13.855Z,23.77
2022-11-13T23:28:41.897Z,22.80
2022-11-13T23:31:11.596Z,23.17
2022-11-13T23:33:40.397Z,24.30
2022-11-13T23:36:09.641Z,24.93
2022-11-13T23:38:37.454Z,23.83
2022-11-13T23:41:05.572Z,24.53
2022-11-13T23:44:02.209Z,23.70
2022-11-13T23:46:22.565Z,22.47
2022-11-13T23:48:50.374Z,21.65
2022-11-13T23:51:18.111Z,21.40
2022-11-13T23:53:45.888Z,21.60
2022-11-13T23:56:13.691Z,22.33
2022-11-13T23:58:41.492Z,20.77
